createdAt,value
2017-12-15T00:00:25.060Z,9.63
2017-12-15T00:02:52.664Z,4.30
2017-12-15T00:05:20.236Z,3.80
2017-12-15T00:07:47.892Z,7.40
2017-12-15T00:10:15.460Z,4.53
2017-12-15T00:12:43.028Z,3.33
2017-12-15T00:15:10.591Z,7.07
2017-12-15T00:17:38.158Z,6.80
2017-12-15T00:20:05.726Z,3.50
2017-12-15T00:22:33.299Z,6.17
2017-12-15T00:25:00.868Z,6.53
2017-12-15T00:27:28.476Z,3.50
2017-12-15T00:29:56.049Z,2.87
2017-12-15T00:32:23.617Z,6.30
2017-12-15T00:34:51.189Z,6.70
2017-12-15T00:37:18.765Z,4.87
2017-12-15T00:39:46.331Z,9.27
2017-12-15T00:42:13.909Z,5.13
2017-12-15T00:44:41.474Z,7.30
2017-12-15T00:47:09.044Z,6.73
2017-12-15T00:49:36.618Z,8.90
2017-12-15T00:52:04.192Z,7.03
2017-12-15T00:54:31.772Z,8.03
2017-12-15T00:56:59.410Z,10.83
2017-12-15T00:59:26.982Z,5.63
2017-12-15T01:01:55.216Z,5.43
2017-12-15T01:04:22.793Z,9.77
2017-12-15T01:06:50.372Z,13.23
2017-12-15T01:09:17.952Z,8.83
2017-12-15T01:11:45.524Z,10.70
2017-12-15T01:14:13.094Z,7.13
2017-12-15T01:16:40.708Z,6.27
2017-12-15T01:19:08.539Z,4.83
2017-12-15T01:21:36.115Z,5.60
2017-12-15T01:24:03.688Z,10.60
2017-12-15T01:26:31.293Z,7.23
2017-12-15T01:28:59.984Z,7.13
2017-12-15T01:31:27.555Z,7.60
2017-12-15T01:33:55.169Z,11.67
2017-12-15T01:36:22.840Z,9.37
2017-12-15T01:38:50.527Z,5.87
2017-12-15T01:41:18.192Z,10.67
2017-12-15T01:43:45.831Z,11.23
2017-12-15T01:46:13.408Z,11.60
2017-12-15T01:48:41.044Z,5.07
2017-12-15T01:51:08.616Z,8.97
2017-12-15T01:53:36.305Z,9.73
2017-12-15T01:56:04.043Z,9.13
2017-12-15T01:58:31.624Z,7.60
2017-12-15T02:00:59.255Z,7.22
2017-12-15T02:03:26.924Z,9.00
2017-12-15T02:05:54.503Z,12.23
2017-12-15T02:08:22.147Z,11.38
2017-12-15T02:10:49.806Z,8.25
2017-12-15T02:13:17.417Z,14.20
2017-12-15T02:15:45.007Z,10.60
2017-12-15T02:18:12.699Z,9.05
2017-12-15T02:20:40.356Z,9.43
2017-12-15T02:23:07.996Z,6.40
2017-12-15T02:25:35.613Z,8.17
2017-12-15T02:28:03.250Z,9.00
2017-12-15T02:30:30.940Z,8.40
2017-12-15T02:32:58.569Z,6.70
2017-12-15T02:35:26.160Z,10.48
2017-12-15T02:37:53.739Z,6.15
2017-12-15T02:40:21.455Z,8.07
2017-12-15T02:42:49.117Z,12.13
2017-12-15T02:45:16.729Z,6.93
2017-12-15T02:47:44.352Z,12.75
2017-12-15T02:50:12.042Z,8.32
2017-12-15T02:52:39.619Z,14.80
2017-12-15T02:55:07.231Z,9.93
2017-12-15T02:57:35.456Z,8.25
2017-12-15T03:00:03.066Z,5.33
2017-12-15T03:02:30.677Z,6.37
2017-12-15T03:04:58.252Z,6.00
2017-12-15T03:07:25.947Z,4.30
2017-12-15T03:09:53.670Z,5.10
2017-12-15T03:12:21.235Z,8.73
2017-12-15T03:14:48.807Z,5.30
2017-12-15T03:17:16.508Z,5.07
2017-12-15T03:19:44.200Z,12.53
2017-12-15T03:22:12.655Z,5.63
2017-12-15T03:24:40.229Z,7.27
2017-12-15T03:27:07.834Z,7.90
2017-12-15T03:29:35.443Z,12.00
2017-12-15T03:32:03.041Z,9.30
2017-12-15T03:34:30.622Z,7.20
2017-12-15T03:36:58.186Z,5.33
2017-12-15T03:39:25.759Z,10.90
2017-12-15T03:41:53.443Z,8.20
2017-12-15T03:44:21.012Z,7.60
2017-12-15T03:46:48.588Z,10.43
2017-12-15T03:49:16.169Z,14.87
2017-12-15T03:51:43.787Z,16.37
2017-12-15T03:54:11.351Z,8.83
2017-12-15T03:56:38.917Z,4.37
2017-12-15T03:59:06.572Z,5.00
2017-12-15T04:01:34.148Z,13.83
2017-12-15T04:04:01.728Z,6.37
2017-12-15T04:06:29.355Z,7.17
2017-12-15T04:08:56.932Z,6.90
2017-12-15T04:11:24.572Z,4.27
2017-12-15T04:13:52.184Z,4.17
2017-12-15T04:16:19.835Z,6.00
2017-12-15T04:18:47.452Z,4.00
2017-12-15T04:21:15.023Z,7.87
2017-12-15T04:23:42.741Z,4.40
2017-12-15T04:26:10.389Z,8.17
2017-12-15T04:28:38.044Z,7.90
2017-12-15T04:31:05.659Z,7.47
2017-12-15T04:33:33.239Z,9.17
2017-12-15T04:36:00.953Z,11.30
2017-12-15T04:38:28.560Z,5.27
2017-12-15T04:40:56.195Z,8.50
2017-12-15T04:43:23.800Z,10.70
2017-12-15T04:45:51.460Z,10.05
2017-12-15T04:48:19.167Z,10.27
2017-12-15T04:50:46.741Z,9.07
2017-12-15T04:53:14.317Z,13.97
2017-12-15T04:55:41.887Z,9.10
2017-12-15T04:58:09.458Z,17.87
2017-12-15T05:00:37.072Z,10.07
2017-12-15T05:03:04.646Z,8.23
2017-12-15T05:05:32.222Z,13.60
2017-12-15T05:07:59.854Z,9.27
2017-12-15T05:10:27.463Z,8.23
2017-12-15T05:12:55.035Z,7.40
2017-12-15T05:15:22.603Z,5.27
2017-12-15T05:17:50.249Z,15.93
2017-12-15T05:20:20.957Z,7.20
2017-12-15T05:22:48.568Z,9.27
2017-12-15T05:25:16.174Z,12.00
2017-12-15T05:27:43.752Z,13.10
2017-12-15T05:30:11.374Z,10.20
2017-12-15T05:32:38.955Z,12.63
2017-12-15T05:35:06.583Z,10.83
2017-12-15T05:37:34.224Z,10.47
2017-12-15T05:40:01.797Z,7.90
2017-12-15T05:42:29.373Z,5.40
2017-12-15T05:44:56.988Z,7.53
2017-12-15T05:47:24.558Z,9.60
2017-12-15T05:49:52.890Z,7.83
2017-12-15T05:52:23.169Z,11.27
2017-12-15T05:54:50.977Z,5.50
2017-12-15T05:57:19.297Z,8.07
2017-12-15T06:00:05.641Z,14.10
2017-12-15T06:05:35.971Z,12.03
2017-12-15T06:08:03.542Z,13.50
2017-12-15T06:10:31.151Z,7.47
2017-12-15T06:12:58.730Z,10.40
2017-12-15T06:15:26.343Z,12.50
2017-12-15T06:17:54.054Z,12.03
2017-12-15T06:23:01.619Z,12.73
2017-12-15T06:25:29.283Z,14.73
2017-12-15T06:27:56.893Z,9.23
2017-12-15T06:30:24.469Z,5.30
2017-12-15T06:32:52.069Z,10.20
2017-12-15T06:35:19.648Z,10.53
2017-12-15T06:37:47.320Z,10.53
2017-12-15T06:40:14.895Z,10.07
2017-12-15T06:42:42.626Z,7.63
2017-12-15T06:45:10.281Z,13.20
2017-12-15T06:47:37.856Z,12.97
2017-12-15T06:50:05.445Z,10.35
2017-12-15T06:52:33.057Z,14.77
2017-12-15T06:55:00.723Z,16.23
2017-12-15T06:57:28.391Z,20.20
2017-12-15T06:59:56.056Z,26.95
2017-12-15T07:02:35.975Z,28.50
2017-12-15T07:05:03.578Z,32.45
2017-12-15T07:07:31.229Z,29.15
2017-12-15T07:09:58.891Z,21.57
2017-12-15T07:12:26.476Z,20.90
2017-12-15T07:14:54.059Z,22.40
2017-12-15T07:17:21.722Z,17.87
2017-12-15T07:19:49.364Z,14.30
2017-12-15T07:22:17.023Z,17.50
2017-12-15T07:24:44.591Z,23.90
2017-12-15T07:27:12.273Z,16.30
2017-12-15T07:29:39.852Z,18.97
2017-12-15T07:32:07.440Z,16.92
2017-12-15T07:34:35.019Z,19.20
2017-12-15T07:37:02.640Z,22.08
2017-12-15T07:39:30.216Z,17.00
2017-12-15T07:41:57.791Z,14.00
2017-12-15T07:44:25.432Z,19.40
2017-12-15T07:46:53.052Z,19.93
2017-12-15T07:49:20.659Z,12.87
2017-12-15T07:51:48.377Z,14.50
2017-12-15T07:54:16.111Z,16.40
2017-12-15T07:56:43.692Z,17.37
2017-12-15T07:59:11.359Z,26.53
2017-12-15T08:01:38.988Z,20.77
2017-12-15T08:04:06.576Z,23.30
2017-12-15T08:06:34.148Z,16.00
2017-12-15T08:09:01.729Z,36.97
2017-12-15T08:11:29.353Z,39.45
2017-12-15T08:13:56.996Z,49.03
2017-12-15T08:16:24.695Z,45.53
2017-12-15T08:18:52.424Z,42.43
2017-12-15T08:21:20.013Z,26.03
2017-12-15T08:23:47.644Z,22.63
2017-12-15T08:26:15.229Z,27.67
2017-12-15T08:28:42.812Z,23.90
2017-12-15T08:31:10.396Z,25.80
2017-12-15T08:33:37.971Z,23.27
2017-12-15T08:36:05.556Z,16.53
2017-12-15T08:38:33.135Z,22.80
2017-12-15T08:41:00.747Z,15.07
2017-12-15T08:43:28.327Z,14.97
2017-12-15T08:45:55.911Z,16.63
2017-12-15T08:48:23.614Z,16.47
2017-12-15T08:50:51.230Z,16.83
2017-12-15T08:53:18.844Z,14.73
2017-12-15T08:55:47.692Z,19.83
2017-12-15T08:58:15.349Z,14.97
2017-12-15T09:00:43.074Z,9.80
2017-12-15T09:03:10.800Z,10.70
2017-12-15T09:05:38.383Z,10.27
2017-12-15T09:08:05.982Z,17.17
2017-12-15T09:10:33.600Z,14.77
2017-12-15T09:13:01.224Z,9.10
2017-12-15T09:15:28.882Z,8.30
2017-12-15T09:17:56.456Z,9.83
2017-12-15T09:20:24.159Z,9.53
2017-12-15T09:22:51.775Z,11.23
2017-12-15T09:25:19.432Z,8.00
2017-12-15T09:27:47.064Z,18.47
2017-12-15T09:30:14.761Z,7.80
2017-12-15T09:32:42.474Z,4.53
2017-12-15T09:35:10.047Z,9.73
2017-12-15T09:37:37.624Z,10.13
2017-12-15T09:40:05.313Z,6.40
2017-12-15T09:42:32.887Z,12.03
2017-12-15T09:45:00.580Z,15.73
2017-12-15T09:47:28.148Z,10.77
2017-12-15T09:49:55.756Z,8.30
2017-12-15T09:52:23.415Z,8.43
2017-12-15T09:54:51.110Z,10.37
2017-12-15T09:57:18.806Z,9.40
2017-12-15T09:59:46.471Z,13.33
2017-12-15T10:02:14.039Z,15.23
2017-12-15T10:04:41.659Z,13.93
2017-12-15T10:07:09.240Z,18.37
2017-12-15T10:09:36.983Z,12.40
2017-12-15T10:12:04.596Z,19.33
2017-12-15T10:14:32.204Z,13.90
2017-12-15T10:16:59.785Z,10.50
2017-12-15T10:19:27.476Z,14.30
2017-12-15T10:21:55.128Z,10.20
2017-12-15T10:24:23.204Z,15.23
2017-12-15T10:26:50.864Z,14.20
2017-12-15T10:29:18.439Z,14.50
2017-12-15T10:31:46.138Z,11.80
2017-12-15T10:34:13.750Z,16.53
2017-12-15T10:36:41.331Z,11.10
2017-12-15T10:39:08.954Z,13.07
2017-12-15T10:41:36.536Z,18.62
2017-12-15T10:44:04.154Z,21.03
2017-12-15T10:46:31.752Z,14.83
2017-12-15T10:48:59.510Z,17.80
2017-12-15T10:51:27.097Z,17.77
2017-12-15T10:53:54.670Z,19.13
2017-12-15T10:56:22.253Z,24.03
2017-12-15T10:58:50.486Z,21.70
2017-12-15T11:01:18.184Z,19.60
2017-12-15T11:03:46.255Z,16.87
2017-12-15T11:06:13.873Z,21.03
2017-12-15T11:08:41.484Z,23.00
2017-12-15T11:11:09.117Z,19.20
2017-12-15T11:13:36.706Z,18.10
2017-12-15T11:16:04.363Z,18.30
2017-12-15T11:18:32.022Z,24.73
2017-12-15T11:20:59.599Z,17.80
2017-12-15T11:23:27.252Z,22.43
2017-12-15T11:25:54.832Z,19.90
2017-12-15T11:28:22.480Z,19.67
2017-12-15T11:30:50.143Z,18.53
2017-12-15T11:33:17.799Z,16.10
2017-12-15T11:35:45.473Z,18.63
2017-12-15T11:38:13.056Z,22.03
2017-12-15T11:40:41.047Z,19.47
2017-12-15T11:43:08.663Z,17.40
2017-12-15T11:45:36.405Z,18.70
2017-12-15T11:48:04.029Z,17.37
2017-12-15T11:50:31.608Z,14.27
2017-12-15T11:52:59.322Z,17.50
2017-12-15T11:55:26.972Z,22.87
2017-12-15T11:57:54.549Z,17.27
2017-12-15T12:00:22.132Z,19.10
2017-12-15T12:02:49.709Z,17.90
2017-12-15T12:05:17.370Z,18.17
2017-12-15T12:07:44.982Z,17.40
2017-12-15T12:10:12.559Z,18.20
2017-12-15T12:12:40.177Z,17.33
2017-12-15T12:15:07.746Z,14.83
2017-12-15T12:17:35.431Z,11.10
2017-12-15T12:20:03.020Z,13.03
2017-12-15T12:22:30.593Z,12.77
2017-12-15T12:24:58.214Z,11.23
2017-12-15T12:27:25.843Z,13.90
2017-12-15T12:29:53.413Z,15.43
2017-12-15T12:32:20.988Z,10.03
2017-12-15T12:34:48.579Z,11.60
2017-12-15T12:37:16.227Z,9.67
2017-12-15T12:39:43.799Z,9.13
2017-12-15T12:42:11.411Z,8.00
2017-12-15T12:44:38.988Z,7.83
2017-12-15T12:47:06.667Z,9.93
2017-12-15T12:49:34.359Z,10.07
2017-12-15T12:52:01.936Z,11.13
2017-12-15T12:54:29.519Z,8.70
2017-12-15T12:56:57.091Z,10.13
2017-12-15T12:59:24.719Z,10.23
2017-12-15T13:01:52.554Z,8.90
2017-12-15T13:04:20.125Z,9.63
2017-12-15T13:06:47.695Z,10.87
2017-12-15T13:09:15.268Z,11.17
2017-12-15T13:11:42.886Z,16.00
2017-12-15T13:14:10.474Z,12.53
2017-12-15T13:16:38.040Z,13.93
2017-12-15T13:19:05.670Z,14.20
2017-12-15T13:21:33.332Z,14.87
2017-12-15T13:24:00.895Z,18.00
2017-12-15T13:26:28.475Z,14.27
2017-12-15T13:28:56.047Z,17.73
2017-12-15T13:31:23.624Z,19.83
2017-12-15T13:33:51.235Z,17.73
2017-12-15T13:36:18.824Z,36.37
2017-12-15T13:38:46.412Z,19.13
2017-12-15T13:41:13.993Z,18.60
2017-12-15T13:43:41.576Z,20.73
2017-12-15T13:46:09.248Z,19.80
2017-12-15T13:48:36.832Z,22.10
2017-12-15T13:51:04.446Z,21.57
2017-12-15T13:53:32.025Z,28.40
2017-12-15T13:55:59.658Z,32.30
2017-12-15T13:58:27.230Z,27.03
2017-12-15T14:00:54.948Z,29.47
2017-12-15T14:03:23.135Z,28.73
2017-12-15T14:05:51.569Z,28.87
2017-12-15T14:08:19.189Z,30.35
2017-12-15T14:10:46.776Z,27.50
2017-12-15T14:13:14.359Z,31.30
2017-12-15T14:15:41.936Z,31.53
2017-12-15T14:18:09.548Z,34.07
2017-12-15T14:20:37.244Z,28.53
2017-12-15T14:23:04.820Z,30.13
2017-12-15T14:25:32.468Z,48.70
2017-12-15T14:28:00.164Z,34.27
2017-12-15T14:30:27.788Z,35.23
2017-12-15T14:32:55.488Z,31.83
2017-12-15T14:35:23.072Z,34.17
2017-12-15T14:37:50.683Z,34.93
2017-12-15T14:40:21.652Z,35.27
2017-12-15T14:42:49.268Z,40.87
2017-12-15T14:45:16.852Z,34.17
2017-12-15T14:47:44.436Z,32.57
2017-12-15T14:50:12.056Z,48.37
2017-12-15T14:52:39.636Z,49.53
2017-12-15T14:55:07.292Z,41.93
2017-12-15T14:57:34.873Z,36.20
2017-12-15T15:00:02.522Z,38.53
2017-12-15T15:02:30.176Z,38.93
2017-12-15T15:04:57.786Z,40.40
2017-12-15T15:07:25.364Z,39.20
2017-12-15T15:09:53.784Z,39.40
2017-12-15T15:12:21.372Z,42.53
2017-12-15T15:14:48.966Z,45.53
2017-12-15T15:17:16.584Z,43.23
2017-12-15T15:19:44.155Z,49.17
2017-12-15T15:22:11.767Z,46.03
2017-12-15T15:24:39.588Z,40.87
2017-12-15T15:27:07.218Z,44.63
2017-12-15T15:29:34.801Z,53.03
2017-12-15T15:32:02.380Z,41.17
2017-12-15T15:34:29.996Z,50.73
2017-12-15T15:36:57.645Z,46.20
2017-12-15T15:39:25.324Z,40.00
2017-12-15T15:41:52.936Z,49.27
2017-12-15T15:44:20.514Z,39.67
2017-12-15T15:46:48.140Z,38.00
2017-12-15T15:49:15.716Z,44.53
2017-12-15T15:51:43.339Z,49.20
2017-12-15T15:54:10.921Z,39.17
2017-12-15T15:56:38.540Z,48.17
2017-12-15T15:59:06.115Z,47.20
2017-12-15T16:01:33.744Z,47.00
2017-12-15T16:04:01.324Z,43.43
2017-12-15T16:06:28.917Z,38.80
2017-12-15T16:08:56.495Z,39.00
2017-12-15T16:11:24.073Z,49.57
2017-12-15T16:13:51.648Z,49.90
2017-12-15T16:16:19.380Z,36.83
2017-12-15T16:18:46.952Z,41.07
2017-12-15T16:21:14.534Z,52.17
2017-12-15T16:23:42.108Z,46.07
2017-12-15T16:26:09.691Z,48.13
2017-12-15T16:28:37.272Z,43.00
2017-12-15T16:31:04.859Z,47.27
2017-12-15T16:33:32.439Z,48.10
2017-12-15T16:36:00.019Z,55.23
2017-12-15T16:38:27.596Z,49.63
2017-12-15T16:40:55.175Z,45.80
2017-12-15T16:43:22.773Z,48.00
2017-12-15T16:45:50.384Z,45.23
2017-12-15T16:48:17.959Z,38.60
2017-12-15T16:50:45.539Z,50.73
2017-12-15T16:53:13.167Z,46.03
2017-12-15T16:55:40.831Z,48.20
2017-12-15T16:58:08.411Z,49.73
2017-12-15T17:00:36.055Z,47.33
2017-12-15T17:03:03.627Z,55.13
2017-12-15T17:05:31.238Z,58.97
2017-12-15T17:07:58.816Z,51.27
2017-12-15T17:10:26.400Z,54.30
2017-12-15T17:12:53.981Z,52.70
2017-12-15T17:15:21.596Z,48.63
2017-12-15T17:17:49.176Z,56.23
2017-12-15T17:20:17.561Z,49.97
2017-12-15T17:22:45.140Z,50.57
2017-12-15T17:25:12.789Z,50.33
2017-12-15T17:27:40.443Z,46.40
2017-12-15T17:30:08.108Z,48.33
2017-12-15T17:32:35.683Z,39.47
2017-12-15T17:35:03.260Z,57.23
2017-12-15T17:37:30.866Z,53.97
2017-12-15T17:39:58.560Z,47.17
2017-12-15T17:42:26.143Z,47.13
2017-12-15T17:44:53.762Z,49.47
2017-12-15T17:47:21.446Z,43.60
2017-12-15T17:49:49.140Z,43.13
2017-12-15T17:52:16.716Z,50.80
2017-12-15T17:54:44.296Z,57.17
2017-12-15T17:57:11.922Z,50.77
2017-12-15T17:59:39.503Z,60.07
2017-12-15T18:02:07.130Z,49.17
2017-12-15T18:04:34.707Z,55.70
2017-12-15T18:07:02.832Z,59.37
2017-12-15T18:09:30.411Z,56.57
2017-12-15T18:11:57.995Z,51.60
2017-12-15T18:14:25.569Z,64.03
2017-12-15T18:16:53.191Z,58.77
2017-12-15T18:19:20.772Z,67.13
2017-12-15T18:21:48.959Z,57.30
2017-12-15T18:24:16.600Z,62.63
2017-12-15T18:26:44.175Z,66.47
2017-12-15T18:29:11.844Z,51.83
2017-12-15T18:31:39.903Z,57.07
2017-12-15T18:34:07.548Z,51.40
2017-12-15T18:36:35.245Z,56.00
2017-12-15T18:39:02.821Z,43.20
2017-12-15T18:41:30.396Z,47.10
2017-12-15T18:43:58.016Z,56.83
2017-12-15T18:46:25.659Z,54.97
2017-12-15T18:48:53.333Z,48.03
2017-12-15T18:51:21.023Z,56.10
2017-12-15T18:53:48.635Z,62.93
2017-12-15T18:56:16.215Z,61.00
2017-12-15T18:58:43.834Z,52.40
2017-12-15T19:01:11.464Z,64.90
2017-12-15T19:03:39.043Z,65.33
2017-12-15T19:06:06.658Z,68.33
2017-12-15T19:08:35.071Z,70.70
2017-12-15T19:11:02.647Z,86.37
2017-12-15T19:13:30.267Z,60.67
2017-12-15T19:15:57.854Z,61.47
2017-12-15T19:18:25.467Z,63.97
2017-12-15T19:20:53.093Z,67.47
2017-12-15T19:23:20.745Z,62.00
2017-12-15T19:25:48.327Z,62.60
2017-12-15T19:28:15.986Z,61.53
2017-12-15T19:30:43.596Z,77.23
2017-12-15T19:33:11.211Z,60.30
2017-12-15T19:35:38.792Z,61.73
2017-12-15T19:38:06.416Z,59.43
2017-12-15T19:40:34.043Z,54.43
2017-12-15T19:43:01.778Z,54.20
2017-12-15T19:45:29.368Z,62.70
2017-12-15T19:47:57.033Z,54.27
2017-12-15T19:50:24.639Z,66.53
2017-12-15T19:52:52.254Z,64.23
2017-12-15T19:55:19.840Z,53.87
2017-12-15T19:57:47.492Z,65.70
2017-12-15T20:00:15.041Z,60.00
2017-12-15T20:02:42.627Z,51.77
2017-12-15T20:05:10.260Z,52.37
2017-12-15T20:07:37.928Z,59.33
2017-12-15T20:10:06.170Z,67.80
2017-12-15T20:12:36.938Z,69.20
2017-12-15T20:15:04.956Z,61.03
2017-12-15T20:17:32.574Z,53.23
2017-12-15T20:20:01.070Z,50.97
2017-12-15T20:22:28.762Z,60.77
2017-12-15T20:24:56.380Z,68.03
2017-12-15T20:27:23.956Z,53.73
2017-12-15T20:29:51.548Z,51.80
2017-12-15T20:32:19.132Z,45.20
2017-12-15T20:34:46.833Z,73.78
2017-12-15T20:37:14.460Z,58.87
2017-12-15T20:39:42.150Z,49.63
2017-12-15T20:42:09.727Z,58.23
2017-12-15T20:44:37.355Z,61.40
2017-12-15T20:47:05.040Z,66.57
2017-12-15T20:49:32.663Z,61.03
2017-12-15T20:52:00.291Z,72.80
2017-12-15T20:54:27.883Z,57.67
2017-12-15T20:56:55.464Z,53.37
2017-12-15T20:59:23.075Z,64.90
2017-12-15T21:01:50.695Z,66.03
2017-12-15T21:04:18.276Z,61.50
2017-12-15T21:06:45.964Z,65.47
2017-12-15T21:09:13.608Z,58.30
2017-12-15T21:11:41.207Z,57.10
2017-12-15T21:14:08.916Z,60.27
2017-12-15T21:16:36.499Z,53.07
2017-12-15T21:19:04.163Z,57.90
2017-12-15T21:21:31.750Z,45.47
2017-12-15T21:23:59.502Z,47.77
2017-12-15T21:26:27.102Z,52.20
2017-12-15T21:28:54.724Z,48.07
2017-12-15T21:31:22.360Z,51.70
2017-12-15T21:33:50.024Z,59.87
2017-12-15T21:36:17.652Z,54.47
2017-12-15T21:38:45.275Z,56.43
2017-12-15T21:41:12.855Z,53.77
2017-12-15T21:43:40.430Z,65.67
2017-12-15T21:46:08.123Z,58.80
2017-12-15T21:48:35.719Z,50.70
2017-12-15T21:51:03.352Z,68.07
2017-12-15T21:53:31.023Z,52.00
2017-12-15T21:55:58.604Z,53.00
2017-12-15T21:58:26.189Z,48.67
2017-12-15T22:00:53.771Z,54.77
2017-12-15T22:03:21.353Z,58.43
2017-12-15T22:05:48.937Z,66.40
2017-12-15T22:08:16.511Z,59.07
2017-12-15T22:10:44.147Z,62.00
2017-12-15T22:13:11.801Z,69.90
2017-12-15T22:15:39.472Z,79.30
2017-12-15T22:18:07.079Z,58.93
2017-12-15T22:20:34.717Z,60.63
2017-12-15T22:23:02.296Z,69.70
2017-12-15T22:25:29.925Z,61.03
2017-12-15T22:27:57.579Z,58.60
2017-12-15T22:30:25.164Z,62.80
2017-12-15T22:32:53.355Z,57.00
2017-12-15T22:35:20.938Z,68.40
2017-12-15T22:37:48.520Z,69.50
2017-12-15T22:40:16.098Z,64.60
2017-12-15T22:42:43.768Z,59.73
2017-12-15T22:45:11.342Z,55.67
2017-12-15T22:47:38.919Z,66.27
2017-12-15T22:50:06.500Z,51.47
2017-12-15T22:52:34.082Z,55.57
2017-12-15T22:55:01.701Z,62.47
2017-12-15T22:57:29.418Z,49.33
2017-12-15T22:59:57.020Z,60.87
2017-12-15T23:02:24.656Z,61.73
2017-12-15T23:04:52.310Z,58.57
2017-12-15T23:07:19.891Z,62.97
2017-12-15T23:09:47.567Z,58.20
2017-12-15T23:12:15.210Z,56.20
2017-12-15T23:14:42.795Z,54.87
2017-12-15T23:17:10.374Z,46.30
2017-12-15T23:19:37.989Z,57.17
2017-12-15T23:22:05.604Z,53.20
2017-12-15T23:24:33.197Z,61.33
2017-12-15T23:27:00.775Z,49.23
2017-12-15T23:29:28.352Z,60.60
2017-12-15T23:31:55.999Z,53.23
2017-12-15T23:34:23.655Z,62.77
2017-12-15T23:36:51.317Z,58.57
2017-12-15T23:39:18.895Z,54.93
2017-12-15T23:41:46.545Z,44.23
2017-12-15T23:44:14.128Z,59.10
2017-12-15T23:46:41.768Z,55.57
2017-12-15T23:49:09.343Z,51.77
2017-12-15T23:51:36.925Z,48.80
2017-12-15T23:54:04.499Z,55.13
2017-12-15T23:56:43.884Z,59.07
2017-12-15T23:59:11.462Z,58.53
